sensor_id;sensor_type;location;lat;lon;timestamp;pressure;altitude;pressure_sealevel;temperature;humidity
18504;BME280;9381;54.244;10.074;2022-08-04T00:02:58;100980.06;;;21.91;100.00
18504;BME280;9381;54.244;10.074;2022-08-04T00:13:06;100983.97;;;21.80;100.00
18504;BME280;9381;54.244;10.074;2022-08-04T00:18:08;100969.75;;;21.68;100.00
18504;BME280;9381;54.244;10.074;2022-08-04T00:23:09;100976.34;;;21.62;100.00
18504;BME280;9381;54.244;10.074;2022-08-04T00:28:10;100971.91;;;21.71;100.00
18504;BME280;9381;54.244;10.074;2022-08-04T00:33:15;100963.41;;;21.67;100.00
18504;BME280;9381;54.244;10.074;2022-08-04T00:38:18;100960.38;;;21.69;100.00
18504;BME280;9381;54.244;10.074;2022-08-04T00:43:43;100955.44;;;21.56;100.00
18504;BME280;9381;54.244;10.074;2022-08-04T01:00:17;100953.31;;;21.38;100.00
18504;BME280;9381;54.244;10.074;2022-08-04T01:15:53;100929.06;;;21.50;100.00
18504;BME280;9381;54.244;10.074;2022-08-04T01:36:58;100895.47;;;21.48;100.00
18504;BME280;9381;54.244;10.074;2022-08-04T01:42:01;100913.69;;;21.44;100.00
18504;BME280;9381;54.244;10.074;2022-08-04T01:47:03;100912.03;;;21.43;100.00
18504;BME280;9381;54.244;10.074;2022-08-04T01:52:07;100914.84;;;21.33;100.00
18504;BME280;9381;54.244;10.074;2022-08-04T01:57:10;100919.78;;;21.31;100.00
18504;BME280;9381;54.244;10.074;2022-08-04T02:02:10;100915.41;;;21.25;100.00
18504;BME280;9381;54.244;10.074;2022-08-04T02:07:19;100910.47;;;21.22;100.00
18504;BME280;9381;54.244;10.074;2022-08-04T02:12:30;100898.41;;;21.13;100.00
18504;BME280;9381;54.244;10.074;2022-08-04T02:23:00;100891.03;;;21.09;100.00
18504;BME280;9381;54.244;10.074;2022-08-04T02:33:22;100882.50;;;21.05;100.00
18504;BME280;9381;54.244;10.074;2022-08-04T02:38:37;100878.34;;;21.13;100.00
18504;BME280;9381;54.244;10.074;2022-08-04T02:43:40;100876.97;;;21.10;100.00
18504;BME280;9381;54.244;10.074;2022-08-04T02:48:44;100869.28;;;21.07;100.00
18504;BME280;9381;54.244;10.074;2022-08-04T02:53:46;100859.97;;;20.98;100.00
18504;BME280;9381;54.244;10.074;2022-08-04T02:58:51;100856.69;;;20.96;100.00
18504;BME280;9381;54.244;10.074;2022-08-04T03:04:41;100856.69;;;20.96;100.00
18504;BME280;9381;54.244;10.074;2022-08-04T03:10:06;100851.94;;;21.07;100.00
18504;BME280;9381;54.244;10.074;2022-08-04T03:21:02;100857.81;;;20.90;100.00
18504;BME280;9381;54.244;10.074;2022-08-04T03:26:41;100846.25;;;20.83;100.00
18504;BME280;9381;54.244;10.074;2022-08-04T03:37:18;100849.03;;;20.78;100.00
18504;BME280;9381;54.244;10.074;2022-08-04T04:15:07;100832.75;;;21.02;100.00
18504;BME280;9381;54.244;10.074;2022-08-04T04:36:28;100832.94;;;21.15;100.00
18504;BME280;9381;54.244;10.074;2022-08-04T04:41:52;100824.63;;;21.25;100.00
18504;BME280;9381;54.244;10.074;2022-08-04T04:52:25;100829.41;;;21.53;100.00
18504;BME280;9381;54.244;10.074;2022-08-04T04:57:30;100829.09;;;21.64;100.00
18504;BME280;9381;54.244;10.074;2022-08-04T05:13:36;100824.34;;;22.03;100.00
18504;BME280;9381;54.244;10.074;2022-08-04T05:18:41;100826.63;;;22.25;100.00
18504;BME280;9381;54.244;10.074;2022-08-04T05:23:48;100834.72;;;22.40;100.00
18504;BME280;9381;54.244;10.074;2022-08-04T05:28:54;100833.00;;;22.49;100.00
18504;BME280;9381;54.244;10.074;2022-08-04T05:34:05;100817.78;;;22.56;100.00
18504;BME280;9381;54.244;10.074;2022-08-04T05:39:15;100818.44;;;22.67;100.00
18504;BME280;9381;54.244;10.074;2022-08-04T05:44:19;100823.41;;;22.70;100.00
18504;BME280;9381;54.244;10.074;2022-08-04T05:49:26;100821.56;;;22.84;100.00
18504;BME280;9381;54.244;10.074;2022-08-04T05:54:30;100819.88;;;22.88;100.00
18504;BME280;9381;54.244;10.074;2022-08-04T05:59:31;100818.53;;;23.04;100.00
18504;BME280;9381;54.244;10.074;2022-08-04T06:04:38;100812.09;;;23.32;100.00
18504;BME280;9381;54.244;10.074;2022-08-04T06:09:40;100797.63;;;23.58;99.87
18504;BME280;9381;54.244;10.074;2022-08-04T06:14:43;100805.78;;;23.82;97.29
18504;BME280;9381;54.244;10.074;2022-08-04T06:19:45;100793.50;;;24.06;96.50
18504;BME280;9381;54.244;10.074;2022-08-04T06:24:48;100793.75;;;24.23;94.99
18504;BME280;9381;54.244;10.074;2022-08-04T06:29:51;100788.25;;;24.50;94.64
18504;BME280;9381;54.244;10.074;2022-08-04T06:34:55;100784.81;;;24.71;93.55
18504;BME280;9381;54.244;10.074;2022-08-04T06:39:57;100783.84;;;25.03;89.97
18504;BME280;9381;54.244;10.074;2022-08-04T06:44:57;100788.03;;;25.27;86.75
18504;BME280;9381;54.244;10.074;2022-08-04T06:49:58;100793.56;;;25.49;86.19
18504;BME280;9381;54.244;10.074;2022-08-04T06:54:59;100793.41;;;25.68;85.64
18504;BME280;9381;54.244;10.074;2022-08-04T07:00:05;100785.31;;;25.93;84.09
18504;BME280;9381;54.244;10.074;2022-08-04T07:05:07;100781.03;;;26.18;84.91
18504;BME280;9381;54.244;10.074;2022-08-04T07:10:09;100789.13;;;26.36;81.14
18504;BME280;9381;54.244;10.074;2022-08-04T07:15:10;100770.69;;;26.62;79.49
18504;BME280;9381;54.244;10.074;2022-08-04T07:20:10;100772.53;;;26.84;79.79
18504;BME280;9381;54.244;10.074;2022-08-04T07:25:13;100778.28;;;27.04;78.17
18504;BME280;9381;54.244;10.074;2022-08-04T07:30:16;100779.31;;;27.42;73.35
18504;BME280;9381;54.244;10.074;2022-08-04T07:35:17;100775.72;;;27.67;73.08
18504;BME280;9381;54.244;10.074;2022-08-04T07:40:17;100773.63;;;27.81;72.07
18504;BME280;9381;54.244;10.074;2022-08-04T07:45:19;100763.41;;;28.10;71.22
18504;BME280;9381;54.244;10.074;2022-08-04T07:50:21;100762.69;;;28.39;69.43
18504;BME280;9381;54.244;10.074;2022-08-04T07:55:22;100749.94;;;28.67;68.65
18504;BME280;9381;54.244;10.074;2022-08-04T08:00:22;100748.31;;;28.95;65.56
18504;BME280;9381;54.244;10.074;2022-08-04T08:05:23;100756.84;;;29.19;65.58
18504;BME280;9381;54.244;10.074;2022-08-04T08:10:23;100752.06;;;29.40;62.45
18504;BME280;9381;54.244;10.074;2022-08-04T08:15:24;100749.22;;;29.69;60.19
18504;BME280;9381;54.244;10.074;2022-08-04T08:20:24;100743.72;;;29.93;58.70
18504;BME280;9381;54.244;10.074;2022-08-04T08:25:25;100737.31;;;30.25;56.86
18504;BME280;9381;54.244;10.074;2022-08-04T08:30:25;100743.28;;;30.59;53.69
18504;BME280;9381;54.244;10.074;2022-08-04T08:35:27;100729.66;;;30.94;50.35
18504;BME280;9381;54.244;10.074;2022-08-04T08:40:45;100734.03;;;31.07;50.28
18504;BME280;9381;54.244;10.074;2022-08-04T09:07:34;100706.69;;;32.37;45.91
18504;BME280;9381;54.244;10.074;2022-08-04T09:12:53;100704.66;;;32.69;44.06
18504;BME280;9381;54.244;10.074;2022-08-04T09:18:06;100700.66;;;32.85;41.04
18504;BME280;9381;54.244;10.074;2022-08-04T09:23:19;100699.06;;;33.03;41.75
18504;BME280;9381;54.244;10.074;2022-08-04T09:28:24;100694.31;;;32.88;40.82
18504;BME280;9381;54.244;10.074;2022-08-04T09:39:03;100698.88;;;33.50;38.18
18504;BME280;9381;54.244;10.074;2022-08-04T09:55:11;100696.34;;;33.83;37.36
18504;BME280;9381;54.244;10.074;2022-08-04T10:00:16;100692.81;;;33.67;41.46
18504;BME280;9381;54.244;10.074;2022-08-04T10:05:21;100691.44;;;33.38;38.46
18504;BME280;9381;54.244;10.074;2022-08-04T10:10:35;100682.72;;;33.24;38.64
18504;BME280;9381;54.244;10.074;2022-08-04T10:15:45;100689.81;;;33.18;40.79
18504;BME280;9381;54.244;10.074;2022-08-04T10:21:22;100687.19;;;33.10;43.37
18504;BME280;9381;54.244;10.074;2022-08-04T10:32:05;100680.72;;;33.63;40.06
18504;BME280;9381;54.244;10.074;2022-08-04T10:37:23;100673.88;;;34.24;40.55
18504;BME280;9381;54.244;10.074;2022-08-04T10:42:29;100659.97;;;34.57;39.59
18504;BME280;9381;54.244;10.074;2022-08-04T10:47:35;100648.50;;;34.95;36.18
18504;BME280;9381;54.244;10.074;2022-08-04T10:52:47;100650.16;;;35.25;36.56
18504;BME280;9381;54.244;10.074;2022-08-04T10:58:05;100646.22;;;35.04;37.40
18504;BME280;9381;54.244;10.074;2022-08-04T11:08:13;100649.25;;;35.91;34.16
18504;BME280;9381;54.244;10.074;2022-08-04T11:13:16;100648.47;;;36.34;30.62
18504;BME280;9381;54.244;10.074;2022-08-04T11:18:34;100640.28;;;36.18;28.99
18504;BME280;9381;54.244;10.074;2022-08-04T11:23:44;100636.97;;;35.33;29.75
18504;BME280;9381;54.244;10.074;2022-08-04T11:34:21;100627.66;;;36.02;32.40
18504;BME280;9381;54.244;10.074;2022-08-04T11:39:36;100614.91;;;36.15;33.90
18504;BME280;9381;54.244;10.074;2022-08-04T11:44:42;100612.72;;;35.58;34.59
18504;BME280;9381;54.244;10.074;2022-08-04T11:49:54;100614.34;;;34.93;36.38
18504;BME280;9381;54.244;10.074;2022-08-04T11:54:58;100615.50;;;34.63;36.82
18504;BME280;9381;54.244;10.074;2022-08-04T12:00:04;100625.50;;;34.34;36.07
18504;BME280;9381;54.244;10.074;2022-08-04T12:05:06;100611.56;;;34.41;36.44
18504;BME280;9381;54.244;10.074;2022-08-04T12:10:21;100617.06;;;34.34;36.06
18504;BME280;9381;54.244;10.074;2022-08-04T12:15:34;100617.03;;;34.31;36.19
18504;BME280;9381;54.244;10.074;2022-08-04T12:20:50;100615.06;;;33.86;38.67
18504;BME280;9381;54.244;10.074;2022-08-04T12:25:55;100608.34;;;33.49;38.68
18504;BME280;9381;54.244;10.074;2022-08-04T12:31:06;100594.38;;;34.72;37.40
18504;BME280;9381;54.244;10.074;2022-08-04T12:36:18;100590.91;;;34.82;35.67
18504;BME280;9381;54.244;10.074;2022-08-04T12:41:26;100590.16;;;35.51;35.82
18504;BME280;9381;54.244;10.074;2022-08-04T12:46:28;100587.16;;;35.37;35.78
18504;BME280;9381;54.244;10.074;2022-08-04T12:51:37;100579.19;;;35.79;36.75
18504;BME280;9381;54.244;10.074;2022-08-04T12:56:38;100565.69;;;36.56;33.26
18504;BME280;9381;54.244;10.074;2022-08-04T13:01:46;100561.09;;;36.95;32.93
18504;BME280;9381;54.244;10.074;2022-08-04T13:07:02;100555.50;;;37.09;32.79
18504;BME280;9381;54.244;10.074;2022-08-04T13:12:14;100555.34;;;36.77;33.58
18504;BME280;9381;54.244;10.074;2022-08-04T13:17:15;100541.03;;;37.14;33.82
18504;BME280;9381;54.244;10.074;2022-08-04T13:22:24;100538.50;;;36.88;32.56
18504;BME280;9381;54.244;10.074;2022-08-04T13:27:25;100553.47;;;36.31;32.71
18504;BME280;9381;54.244;10.074;2022-08-04T13:32:27;100544.78;;;35.59;34.20
18504;BME280;9381;54.244;10.074;2022-08-04T13:37:34;100540.81;;;34.91;35.21
18504;BME280;9381;54.244;10.074;2022-08-04T13:42:36;100535.50;;;35.15;35.96
18504;BME280;9381;54.244;10.074;2022-08-04T13:47:39;100528.41;;;35.25;36.79
18504;BME280;9381;54.244;10.074;2022-08-04T13:52:40;100520.13;;;35.39;36.22
18504;BME280;9381;54.244;10.074;2022-08-04T13:57:46;100514.03;;;35.77;36.47
18504;BME280;9381;54.244;10.074;2022-08-04T14:02:55;100493.19;;;36.46;34.43
18504;BME280;9381;54.244;10.074;2022-08-04T14:08:12;100494.19;;;36.85;33.78
18504;BME280;9381;54.244;10.074;2022-08-04T14:13:14;100494.97;;;36.82;33.75
18504;BME280;9381;54.244;10.074;2022-08-04T14:18:29;100481.28;;;36.80;34.43
18504;BME280;9381;54.244;10.074;2022-08-04T14:23:38;100474.44;;;36.10;33.83
18504;BME280;9381;54.244;10.074;2022-08-04T14:28:39;100470.25;;;35.83;34.36
18504;BME280;9381;54.244;10.074;2022-08-04T14:33:41;100495.06;;;35.67;39.21
18504;BME280;9381;54.244;10.074;2022-08-04T14:43:53;100517.72;;;35.08;47.54
18504;BME280;9381;54.244;10.074;2022-08-04T14:49:12;100511.69;;;34.73;49.82
18504;BME280;9381;54.244;10.074;2022-08-04T14:54:13;100524.22;;;34.50;50.28
18504;BME280;9381;54.244;10.074;2022-08-04T14:59:14;100517.38;;;34.21;51.43
18504;BME280;9381;54.244;10.074;2022-08-04T15:04:14;100543.75;;;33.68;52.94
18504;BME280;9381;54.244;10.074;2022-08-04T15:09:15;100553.91;;;33.12;53.55
18504;BME280;9381;54.244;10.074;2022-08-04T15:14:16;100569.13;;;32.73;54.82
18504;BME280;9381;54.244;10.074;2022-08-04T15:19:17;100574.13;;;32.49;55.81
18504;BME280;9381;54.244;10.074;2022-08-04T15:24:17;100590.16;;;32.17;57.22
18504;BME280;9381;54.244;10.074;2022-08-04T15:29:24;100591.63;;;32.11;56.56
18504;BME280;9381;54.244;10.074;2022-08-04T15:34:26;100602.44;;;31.66;54.63
18504;BME280;9381;54.244;10.074;2022-08-04T15:39:37;100604.03;;;31.37;52.20
18504;BME280;9381;54.244;10.074;2022-08-04T15:45:03;100601.66;;;30.84;52.10
18504;BME280;9381;54.244;10.074;2022-08-04T15:50:12;100590.78;;;30.67;53.98
18504;BME280;9381;54.244;10.074;2022-08-04T15:55:34;100609.63;;;30.34;53.84
18504;BME280;9381;54.244;10.074;2022-08-04T16:05:48;100631.16;;;30.09;55.58
18504;BME280;9381;54.244;10.074;2022-08-04T16:10:50;100647.63;;;29.46;58.27
18504;BME280;9381;54.244;10.074;2022-08-04T16:15:52;100665.50;;;29.45;60.32
18504;BME280;9381;54.244;10.074;2022-08-04T16:20:55;100685.22;;;29.19;62.56
18504;BME280;9381;54.244;10.074;2022-08-04T16:25:56;100702.22;;;28.77;64.40
18504;BME280;9381;54.244;10.074;2022-08-04T16:31:03;100704.63;;;28.87;64.40
18504;BME280;9381;54.244;10.074;2022-08-04T16:36:07;100723.19;;;28.54;63.38
18504;BME280;9381;54.244;10.074;2022-08-04T16:41:10;100732.09;;;28.30;64.71
18504;BME280;9381;54.244;10.074;2022-08-04T16:46:11;100743.28;;;28.05;64.75
18504;BME280;9381;54.244;10.074;2022-08-04T16:51:11;100717.53;;;27.79;64.67
18504;BME280;9381;54.244;10.074;2022-08-04T16:56:14;100729.31;;;27.76;64.89
18504;BME280;9381;54.244;10.074;2022-08-04T17:01:17;100744.34;;;27.75;65.01
18504;BME280;9381;54.244;10.074;2022-08-04T17:06:19;100747.44;;;27.14;66.10
18504;BME280;9381;54.244;10.074;2022-08-04T17:11:30;100744.38;;;26.60;67.96
18504;BME280;9381;54.244;10.074;2022-08-04T17:16:39;100728.81;;;26.50;69.42
18504;BME280;9381;54.244;10.074;2022-08-04T17:21:40;100708.84;;;26.31;69.59
18504;BME280;9381;54.244;10.074;2022-08-04T17:26:41;100693.97;;;26.58;69.58
18504;BME280;9381;54.244;10.074;2022-08-04T17:31:42;100686.47;;;26.75;68.79
18504;BME280;9381;54.244;10.074;2022-08-04T17:36:42;100646.63;;;26.88;68.51
18504;BME280;9381;54.244;10.074;2022-08-04T17:41:43;100645.19;;;26.91;68.61
18504;BME280;9381;54.244;10.074;2022-08-04T17:46:45;100648.78;;;26.91;68.51
18504;BME280;9381;54.244;10.074;2022-08-04T17:52:05;100652.84;;;26.68;69.58
18504;BME280;9381;54.244;10.074;2022-08-04T17:57:14;100663.78;;;26.73;70.16
18504;BME280;9381;54.244;10.074;2022-08-04T18:02:28;100666.81;;;26.46;71.32
18504;BME280;9381;54.244;10.074;2022-08-04T18:07:36;100691.63;;;26.51;71.19
18504;BME280;9381;54.244;10.074;2022-08-04T18:12:37;100680.81;;;26.33;71.69
18504;BME280;9381;54.244;10.074;2022-08-04T18:17:43;100686.66;;;26.31;72.09
18504;BME280;9381;54.244;10.074;2022-08-04T18:22:46;100684.06;;;26.35;69.89
18504;BME280;9381;54.244;10.074;2022-08-04T18:27:51;100688.94;;;26.29;67.07
18504;BME280;9381;54.244;10.074;2022-08-04T18:32:53;100702.78;;;26.21;67.10
18504;BME280;9381;54.244;10.074;2022-08-04T18:37:54;100720.50;;;26.11;67.13
18504;BME280;9381;54.244;10.074;2022-08-04T18:42:55;100738.06;;;25.98;67.55
18504;BME280;9381;54.244;10.074;2022-08-04T18:47:55;100743.91;;;25.97;67.60
18504;BME280;9381;54.244;10.074;2022-08-04T18:52:55;100737.06;;;25.94;68.04
18504;BME280;9381;54.244;10.074;2022-08-04T18:57:56;100745.59;;;25.84;68.51
18504;BME280;9381;54.244;10.074;2022-08-04T19:02:57;100747.38;;;25.80;69.25
18504;BME280;9381;54.244;10.074;2022-08-04T19:07:57;100781.50;;;25.67;69.36
18504;BME280;9381;54.244;10.074;2022-08-04T19:12:58;100786.91;;;25.50;69.85
18504;BME280;9381;54.244;10.074;2022-08-04T19:17:58;100795.81;;;25.25;71.20
18504;BME280;9381;54.244;10.074;2022-08-04T19:22:58;100791.94;;;24.99;72.68
18504;BME280;9381;54.244;10.074;2022-08-04T19:27:59;100799.31;;;25.04;72.48
18504;BME280;9381;54.244;10.074;2022-08-04T19:32:59;100801.75;;;25.05;72.66
18504;BME280;9381;54.244;10.074;2022-08-04T19:38:00;100797.69;;;25.03;72.61
18504;BME280;9381;54.244;10.074;2022-08-04T19:43:00;100809.56;;;25.03;72.67
18504;BME280;9381;54.244;10.074;2022-08-04T19:48:01;100814.69;;;24.96;72.87
18504;BME280;9381;54.244;10.074;2022-08-04T19:53:01;100821.47;;;24.90;73.79
18504;BME280;9381;54.244;10.074;2022-08-04T19:58:03;100823.81;;;24.83;73.91
18504;BME280;9381;54.244;10.074;2022-08-04T20:03:09;100824.53;;;24.75;74.53
18504;BME280;9381;54.244;10.074;2022-08-04T20:08:12;100828.34;;;24.66;75.56
18504;BME280;9381;54.244;10.074;2022-08-04T20:13:13;100827.63;;;24.60;76.16
18504;BME280;9381;54.244;10.074;2022-08-04T20:18:13;100818.50;;;24.60;77.65
18504;BME280;9381;54.244;10.074;2022-08-04T20:23:14;100823.91;;;24.51;78.61
18504;BME280;9381;54.244;10.074;2022-08-04T20:28:14;100834.53;;;24.44;79.56
18504;BME280;9381;54.244;10.074;2022-08-04T20:33:15;100840.66;;;24.28;80.74
18504;BME280;9381;54.244;10.074;2022-08-04T20:38:15;100847.41;;;24.22;81.86
18504;BME280;9381;54.244;10.074;2022-08-04T20:43:15;100841.22;;;24.12;83.16
18504;BME280;9381;54.244;10.074;2022-08-04T20:48:16;100852.44;;;24.02;84.03
18504;BME280;9381;54.244;10.074;2022-08-04T20:53:16;100857.91;;;23.88;85.05
18504;BME280;9381;54.244;10.074;2022-08-04T20:58:16;100846.88;;;23.88;85.31
18504;BME280;9381;54.244;10.074;2022-08-04T21:03:17;100850.91;;;23.77;86.03
18504;BME280;9381;54.244;10.074;2022-08-04T21:08:17;100862.31;;;23.71;85.87
18504;BME280;9381;54.244;10.074;2022-08-04T21:13:18;100864.03;;;23.67;86.16
18504;BME280;9381;54.244;10.074;2022-08-04T21:18:18;100868.97;;;23.51;86.88
18504;BME280;9381;54.244;10.074;2022-08-04T21:23:18;100853.97;;;23.39;87.51
18504;BME280;9381;54.244;10.074;2022-08-04T21:28:19;100864.03;;;23.30;88.09
18504;BME280;9381;54.244;10.074;2022-08-04T21:33:20;100872.53;;;23.15;89.00
18504;BME280;9381;54.244;10.074;2022-08-04T21:38:21;100864.78;;;23.12;89.13
18504;BME280;9381;54.244;10.074;2022-08-04T21:43:22;100872.53;;;23.15;88.81
18504;BME280;9381;54.244;10.074;2022-08-04T21:48:23;100865.16;;;23.05;89.04
18504;BME280;9381;54.244;10.074;2022-08-04T21:53:23;100860.00;;;22.99;89.16
18504;BME280;9381;54.244;10.074;2022-08-04T21:58:24;100861.16;;;22.93;89.26
18504;BME280;9381;54.244;10.074;2022-08-04T22:03:24;100865.13;;;22.87;89.62
18504;BME280;9381;54.244;10.074;2022-08-04T22:08:24;100871.28;;;22.79;90.34
18504;BME280;9381;54.244;10.074;2022-08-04T22:13:25;100878.56;;;22.70;91.01
18504;BME280;9381;54.244;10.074;2022-08-04T22:18:25;100874.78;;;22.61;91.55
18504;BME280;9381;54.244;10.074;2022-08-04T22:23:26;100870.69;;;22.58;91.52
18504;BME280;9381;54.244;10.074;2022-08-04T22:28:26;100891.50;;;22.41;92.29
18504;BME280;9381;54.244;10.074;2022-08-04T22:33:26;100890.13;;;22.43;92.90
18504;BME280;9381;54.244;10.074;2022-08-04T22:38:27;100873.88;;;22.37;92.42
18504;BME280;9381;54.244;10.074;2022-08-04T22:43:27;100883.88;;;22.33;92.30
18504;BME280;9381;54.244;10.074;2022-08-04T22:48:28;100880.56;;;22.31;91.57
18504;BME280;9381;54.244;10.074;2022-08-04T22:53:28;100878.66;;;22.26;90.97
18504;BME280;9381;54.244;10.074;2022-08-04T22:58:29;100883.47;;;22.16;91.49
18504;BME280;9381;54.244;10.074;2022-08-04T23:03:29;100867.81;;;22.06;90.68
18504;BME280;9381;54.244;10.074;2022-08-04T23:08:30;100868.75;;;21.97;90.42
18504;BME280;9381;54.244;10.074;2022-08-04T23:13:30;100866.09;;;21.82;89.60
18504;BME280;9381;54.244;10.074;2022-08-04T23:18:30;100869.47;;;21.74;89.66
18504;BME280;9381;54.244;10.074;2022-08-04T23:23:31;100864.06;;;21.59;89.01
18504;BME280;9381;54.244;10.074;2022-08-04T23:28:31;100859.16;;;21.51;88.68
18504;BME280;9381;54.244;10.074;2022-08-04T23:33:32;100863.31;;;21.43;88.11
18504;BME280;9381;54.244;10.074;2022-08-04T23:38:33;100874.38;;;21.33;87.66
18504;BME280;9381;54.244;10.074;2022-08-04T23:43:33;100892.03;;;21.22;87.72
18504;BME280;9381;54.244;10.074;2022-08-04T23:48:38;100894.00;;;21.12;88.04
18504;BME280;9381;54.244;10.074;2022-08-04T23:53:39;100899.00;;;21.05;87.21
18504;BME280;9381;54.244;10.074;2022-08-04T23:58:40;100909.22;;;20.95;87.65
